Winona, Tennessee
Current Conditions -  °F | °C
As of 2:53 PM on Wednesday 28 Jan 2015 (Local Time) from KOQT Reporting Station
Clear Clear  
Wind Chill: 43°   Ceiling: Unl
Heat Index: 43°   Visibility: 10mi
Dew Point: 11°   Wind: 0mph
Humidity: 27%   Direction: NA
Pressure: 30.29"   Gusts: NA
Location:  36.37°N, 84.45°W
Report Text: KOQT 281953Z AUTO 00000KT 10SM CLR 06/M12 A3029 RMK AO2 SLP271 T00611117
Loading
Personal Weather Stations






























Interactive Weather Map New forecast layout! Learn more

10-Day Weather Forecast

Advertisements
Track Severe Weather on mobile